createdAt,value
2018-10-09T01:01:16.907Z,10.90
2018-10-09T01:03:45.176Z,11.57
2018-10-09T01:06:13.432Z,11.08
2018-10-09T01:13:36.783Z,10.65
2018-10-09T01:25:55.305Z,12.50
2018-10-09T01:33:25.230Z,10.28
2018-10-09T01:35:53.596Z,11.75
2018-10-09T01:38:21.913Z,10.80
2018-10-09T01:40:50.200Z,10.55
2018-10-09T01:43:18.525Z,10.40
2018-10-09T01:45:46.829Z,10.50
2018-10-09T01:48:15.215Z,10.53
2018-10-09T01:50:43.478Z,10.80
2018-10-09T01:53:11.783Z,10.17
2018-10-09T01:55:40.076Z,9.63
2018-10-09T01:58:08.404Z,9.43
2018-10-09T02:00:36.698Z,9.75
2018-10-09T02:03:05.010Z,9.38
2018-10-09T02:05:33.302Z,9.40
2018-10-09T02:08:01.623Z,9.20
2018-10-09T02:10:29.918Z,9.25
2018-10-09T02:12:58.234Z,9.50
2018-10-09T02:15:36.686Z,9.60
2018-10-09T02:18:04.959Z,8.97
2018-10-09T02:20:33.514Z,8.50
2018-10-09T02:23:01.801Z,8.73
2018-10-09T02:25:30.070Z,8.25
2018-10-09T02:27:58.310Z,8.30
2018-10-09T02:30:26.649Z,7.67
2018-10-09T02:32:54.950Z,8.37
2018-10-09T02:35:23.297Z,8.45
2018-10-09T02:37:51.575Z,7.90
2018-10-09T02:40:19.799Z,9.10
2018-10-09T02:42:48.069Z,8.80
2018-10-09T02:45:16.412Z,8.98
2018-10-09T02:47:44.682Z,8.80
2018-10-09T02:50:12.962Z,9.58
2018-10-09T02:52:41.259Z,9.65
2018-10-09T02:55:09.545Z,8.33
2018-10-09T02:57:37.893Z,8.70
2018-10-09T03:00:06.338Z,8.70
2018-10-09T03:02:34.672Z,8.90
2018-10-09T03:05:02.961Z,10.85
2018-10-09T03:07:31.244Z,10.45
2018-10-09T03:09:59.595Z,9.35
2018-10-09T03:12:27.919Z,8.70
2018-10-09T03:14:56.451Z,7.50
2018-10-09T03:17:24.776Z,8.43
2018-10-09T03:19:53.029Z,8.00
2018-10-09T03:22:21.555Z,8.90
2018-10-09T03:24:55.903Z,9.80
2018-10-09T03:27:24.167Z,10.10
2018-10-09T03:29:58.449Z,9.10
2018-10-09T03:32:26.799Z,9.10
2018-10-09T03:34:55.080Z,9.13
2018-10-09T03:37:23.621Z,10.80
2018-10-09T03:39:51.908Z,14.73
2018-10-09T03:42:20.193Z,11.08
2018-10-09T03:44:48.473Z,9.63
2018-10-09T03:47:16.803Z,9.55
2018-10-09T03:49:45.001Z,8.80
2018-10-09T03:52:13.325Z,9.30
2018-10-09T03:54:41.680Z,9.80
2018-10-09T03:57:10.067Z,10.10
2018-10-09T03:59:38.351Z,9.70
2018-10-09T04:02:06.648Z,10.25
2018-10-09T04:04:34.959Z,10.20
2018-10-09T04:07:03.367Z,10.45
2018-10-09T04:09:31.696Z,9.80
2018-10-09T04:11:59.983Z,8.68
2018-10-09T04:14:28.296Z,8.88
